createdAt,value
2017-10-13T00:01:00.713Z,13.90
2017-10-13T00:03:28.294Z,15.60
2017-10-13T00:05:55.797Z,17.77
2017-10-13T00:08:23.294Z,12.00
2017-10-13T00:10:51.581Z,18.00
2017-10-13T00:13:19.853Z,16.43
2017-10-13T00:15:47.393Z,10.23
2017-10-13T00:18:14.899Z,12.40
2017-10-13T00:20:42.428Z,14.53
2017-10-13T00:23:09.931Z,14.17
2017-10-13T00:25:37.481Z,15.10
2017-10-13T00:28:04.982Z,17.60
2017-10-13T00:30:33.406Z,11.83
2017-10-13T00:33:00.937Z,14.50
2017-10-13T00:35:28.445Z,15.30
2017-10-13T00:37:55.978Z,10.50
2017-10-13T00:40:23.493Z,12.87
2017-10-13T00:42:51.045Z,20.23
2017-10-13T00:45:19.318Z,18.80
2017-10-13T00:47:46.870Z,16.33
2017-10-13T00:50:14.377Z,8.03
2017-10-13T00:52:41.901Z,10.03
2017-10-13T00:55:09.500Z,12.73
2017-10-13T00:57:37.015Z,16.27
2017-10-13T01:00:04.557Z,16.30
2017-10-13T01:02:32.099Z,17.50
2017-10-13T01:04:59.645Z,13.67
2017-10-13T01:07:27.149Z,8.00
2017-10-13T01:09:54.688Z,11.77
2017-10-13T01:12:22.183Z,13.10
2017-10-13T01:14:49.693Z,16.00
2017-10-13T01:17:17.239Z,18.17
2017-10-13T01:19:44.759Z,16.53
2017-10-13T01:22:12.289Z,11.20
2017-10-13T01:24:39.825Z,16.70
2017-10-13T01:27:07.373Z,9.90
2017-10-13T01:29:34.857Z,6.03
2017-10-13T01:32:02.379Z,9.57
2017-10-13T01:34:29.917Z,15.10
2017-10-13T01:36:57.429Z,13.67
2017-10-13T01:39:25.763Z,12.60
2017-10-13T01:41:53.262Z,12.53
2017-10-13T01:44:20.797Z,12.97
2017-10-13T01:46:48.310Z,9.87
2017-10-13T01:49:15.845Z,15.07
2017-10-13T01:51:43.366Z,11.50
2017-10-13T01:54:10.933Z,11.90
2017-10-13T01:56:38.473Z,15.10
2017-10-13T01:59:05.973Z,15.00
2017-10-13T02:01:33.548Z,18.47
2017-10-13T02:04:01.035Z,22.97
2017-10-13T02:06:29.297Z,20.53
2017-10-13T02:08:56.828Z,20.20
2017-10-13T02:11:24.309Z,26.80
2017-10-13T02:13:51.912Z,19.03
2017-10-13T02:16:19.397Z,20.90
2017-10-13T02:18:46.934Z,25.30
2017-10-13T02:21:14.424Z,23.03
2017-10-13T02:23:41.957Z,26.87
2017-10-13T02:26:09.477Z,26.03
2017-10-13T02:28:37.004Z,21.13
2017-10-13T02:31:04.511Z,24.67
2017-10-13T02:33:32.054Z,16.90
2017-10-13T02:35:59.538Z,22.40
2017-10-13T02:38:27.025Z,17.43
2017-10-13T02:40:54.571Z,31.80
2017-10-13T02:43:22.082Z,18.57
2017-10-13T02:45:49.608Z,26.47
2017-10-13T02:48:17.111Z,21.20
2017-10-13T02:50:44.650Z,19.57
2017-10-13T02:53:12.152Z,30.80
2017-10-13T02:55:39.677Z,26.03
2017-10-13T02:58:07.180Z,22.73
2017-10-13T03:00:34.717Z,22.30
2017-10-13T03:03:02.209Z,23.27
2017-10-13T03:05:29.736Z,23.23
2017-10-13T03:07:57.237Z,22.10
2017-10-13T03:10:24.744Z,28.33
2017-10-13T03:12:52.276Z,25.63
2017-10-13T03:15:19.771Z,25.50
2017-10-13T03:17:47.309Z,20.83
2017-10-13T03:20:15.608Z,20.57
2017-10-13T03:22:43.128Z,22.53
2017-10-13T03:25:10.613Z,18.50
2017-10-13T03:27:38.166Z,24.90
2017-10-13T03:30:06.520Z,19.03
2017-10-13T03:32:34.001Z,18.03
2017-10-13T03:35:01.523Z,16.67
2017-10-13T03:37:29.022Z,16.30
2017-10-13T03:39:57.316Z,18.00
2017-10-13T03:42:25.577Z,18.17
2017-10-13T03:44:53.129Z,20.03
2017-10-13T03:47:20.665Z,11.60
2017-10-13T03:49:48.193Z,12.73
2017-10-13T03:52:15.687Z,13.87
2017-10-13T03:54:43.293Z,19.53
2017-10-13T03:57:10.785Z,13.17
2017-10-13T03:59:38.308Z,8.47
2017-10-13T04:02:06.568Z,21.60
2017-10-13T04:04:34.105Z,19.90
2017-10-13T04:07:01.598Z,22.50
2017-10-13T04:09:29.182Z,13.83
2017-10-13T04:11:56.690Z,17.27
2017-10-13T04:14:24.194Z,11.63
2017-10-13T04:16:51.726Z,14.97
2017-10-13T04:19:19.246Z,30.10
2017-10-13T04:21:46.776Z,11.70
2017-10-13T04:24:14.271Z,10.73
2017-10-13T04:26:41.814Z,11.67
2017-10-13T04:29:09.313Z,13.83
2017-10-13T04:31:36.870Z,10.30
2017-10-13T04:34:04.376Z,13.90
2017-10-13T04:36:31.935Z,16.37
2017-10-13T04:38:59.458Z,8.13
2017-10-13T04:41:27.020Z,14.40
2017-10-13T04:43:54.515Z,10.03
2017-10-13T04:46:22.800Z,15.40
2017-10-13T04:48:51.099Z,10.80
2017-10-13T04:51:18.618Z,8.37
2017-10-13T04:53:46.153Z,14.33
2017-10-13T04:56:13.712Z,9.27
2017-10-13T04:58:41.398Z,12.90
2017-10-13T05:01:08.978Z,10.57
2017-10-13T05:03:36.521Z,14.03
2017-10-13T05:06:04.095Z,14.60
2017-10-13T05:08:32.401Z,14.00
2017-10-13T05:10:59.893Z,8.50
2017-10-13T05:13:27.437Z,12.17
2017-10-13T05:15:54.947Z,11.57
2017-10-13T05:18:22.448Z,9.07
2017-10-13T05:20:50.010Z,6.60
2017-10-13T05:23:17.535Z,12.40
2017-10-13T05:25:45.064Z,15.00
2017-10-13T05:28:12.595Z,8.20
2017-10-13T05:30:40.137Z,10.57
2017-10-13T05:33:07.635Z,15.03
2017-10-13T05:35:35.164Z,12.40
2017-10-13T05:38:03.426Z,14.30
2017-10-13T05:40:30.985Z,9.30
2017-10-13T05:42:58.485Z,11.60
2017-10-13T05:45:26.045Z,12.93
2017-10-13T05:47:53.538Z,17.27
2017-10-13T05:50:21.033Z,11.67
2017-10-13T05:52:48.560Z,13.90
2017-10-13T05:55:16.057Z,9.20
2017-10-13T05:57:44.370Z,13.27
2017-10-13T06:00:11.865Z,15.97
2017-10-13T06:02:39.429Z,8.70
2017-10-13T06:05:06.935Z,10.40
2017-10-13T06:07:34.493Z,22.37
2017-10-13T06:10:02.013Z,13.33
2017-10-13T06:12:30.269Z,12.47
2017-10-13T06:14:57.811Z,18.43
2017-10-13T06:17:25.356Z,18.40
2017-10-13T06:19:53.652Z,16.83
2017-10-13T06:22:21.224Z,15.00
2017-10-13T06:24:48.978Z,21.03
2017-10-13T06:27:17.242Z,15.33
2017-10-13T06:29:44.769Z,15.33
2017-10-13T06:32:12.289Z,14.53
2017-10-13T06:34:40.621Z,12.30
2017-10-13T06:37:08.121Z,11.03
2017-10-13T06:39:35.625Z,11.10
2017-10-13T06:42:03.156Z,13.47
2017-10-13T06:44:30.647Z,21.37
2017-10-13T06:46:58.177Z,12.13
2017-10-13T06:49:25.672Z,13.67
2017-10-13T06:51:53.201Z,10.83
2017-10-13T06:54:20.692Z,12.87
2017-10-13T06:56:48.217Z,12.43
2017-10-13T06:59:15.712Z,12.40
2017-10-13T07:01:43.225Z,14.67
2017-10-13T07:04:10.767Z,15.20
2017-10-13T07:06:38.269Z,13.33
2017-10-13T07:09:05.792Z,15.23
2017-10-13T07:11:33.297Z,11.53
2017-10-13T07:14:00.821Z,14.37
2017-10-13T07:16:28.523Z,7.33
2017-10-13T07:18:56.116Z,15.17
2017-10-13T07:21:23.608Z,14.73
2017-10-13T07:23:51.169Z,15.27
2017-10-13T07:26:18.664Z,18.60
2017-10-13T07:28:46.443Z,15.43
2017-10-13T07:31:13.970Z,13.20
2017-10-13T07:33:41.460Z,11.33
2017-10-13T07:36:09.013Z,12.53
2017-10-13T07:38:36.527Z,19.40
2017-10-13T07:41:04.054Z,8.30
2017-10-13T07:43:31.552Z,10.70
2017-10-13T07:45:59.094Z,13.37
2017-10-13T07:48:27.393Z,16.00
2017-10-13T07:50:54.921Z,15.60
2017-10-13T07:53:22.413Z,7.30
2017-10-13T07:55:50.092Z,19.27
2017-10-13T07:58:17.589Z,12.90
2017-10-13T08:00:45.139Z,19.10
2017-10-13T08:03:13.398Z,15.03
2017-10-13T08:05:40.899Z,12.40
2017-10-13T08:08:09.193Z,16.37
2017-10-13T08:10:37.460Z,21.50
2017-10-13T08:13:05.008Z,9.23
2017-10-13T08:15:33.353Z,18.20
2017-10-13T08:18:00.885Z,14.77
2017-10-13T08:20:28.380Z,13.03
2017-10-13T08:22:56.676Z,13.70
2017-10-13T08:25:24.232Z,20.63
2017-10-13T08:27:51.773Z,16.53
2017-10-13T08:30:19.261Z,8.90
2017-10-13T08:32:46.957Z,9.00
2017-10-13T08:35:16.665Z,14.80
2017-10-13T08:37:44.161Z,11.13
2017-10-13T08:40:12.456Z,13.87
2017-10-13T08:42:40.720Z,11.80
2017-10-13T08:45:08.267Z,15.97
2017-10-13T08:47:36.627Z,14.93
2017-10-13T08:50:04.165Z,11.20
2017-10-13T08:52:32.424Z,9.23
2017-10-13T08:54:59.952Z,11.00
2017-10-13T08:57:27.443Z,11.80
2017-10-13T08:59:54.995Z,14.50
2017-10-13T09:02:22.845Z,15.70
2017-10-13T09:04:50.345Z,13.13
2017-10-13T09:07:17.868Z,14.40
2017-10-13T09:09:45.368Z,15.10
2017-10-13T09:12:12.897Z,18.07
2017-10-13T09:14:40.388Z,13.13
2017-10-13T09:17:07.928Z,12.37
2017-10-13T09:19:35.423Z,12.93
2017-10-13T09:22:02.948Z,13.03
2017-10-13T09:24:30.444Z,19.63
2017-10-13T09:26:58.033Z,13.13
2017-10-13T09:29:25.568Z,12.40
2017-10-13T09:31:53.073Z,11.93
2017-10-13T09:34:20.605Z,10.60
2017-10-13T09:36:48.097Z,11.13
2017-10-13T09:39:15.626Z,12.33
2017-10-13T09:41:43.119Z,11.93
2017-10-13T09:44:10.664Z,6.87
2017-10-13T09:46:38.977Z,17.67
2017-10-13T09:49:06.498Z,10.57
2017-10-13T09:51:34.054Z,22.63
2017-10-13T09:54:01.568Z,14.30
2017-10-13T09:56:29.861Z,12.90
2017-10-13T09:58:58.129Z,9.80
2017-10-13T10:01:25.652Z,9.87
2017-10-13T10:03:53.189Z,9.07
2017-10-13T10:06:20.721Z,9.17
2017-10-13T10:08:48.411Z,6.03
2017-10-13T10:11:15.930Z,11.60
2017-10-13T10:13:43.487Z,4.37
2017-10-13T10:16:11.770Z,9.57
2017-10-13T10:18:39.304Z,14.13
2017-10-13T10:21:06.809Z,6.77
2017-10-13T10:23:34.338Z,6.87
2017-10-13T10:26:01.905Z,5.73
2017-10-13T10:28:29.460Z,6.77
2017-10-13T10:30:56.960Z,7.10
2017-10-13T10:33:24.491Z,7.03
2017-10-13T10:35:51.986Z,6.23
2017-10-13T10:38:19.539Z,8.60
2017-10-13T10:40:47.033Z,4.40
2017-10-13T10:43:14.545Z,7.43
2017-10-13T10:45:42.064Z,6.10
2017-10-13T10:48:09.546Z,6.07
2017-10-13T10:50:37.073Z,9.50
2017-10-13T10:53:04.570Z,9.53
2017-10-13T10:55:32.104Z,9.33
2017-10-13T10:57:59.593Z,10.30
2017-10-13T11:00:27.917Z,8.70
2017-10-13T11:02:55.413Z,6.00
2017-10-13T11:05:22.933Z,5.80
2017-10-13T11:07:51.473Z,3.90
2017-10-13T11:10:18.996Z,3.10
2017-10-13T11:12:46.507Z,6.03
2017-10-13T11:15:14.141Z,7.83
2017-10-13T11:17:42.394Z,3.20
2017-10-13T11:20:10.038Z,3.47
2017-10-13T11:22:37.530Z,2.57
2017-10-13T11:25:05.078Z,2.60
2017-10-13T11:27:32.565Z,2.63
2017-10-13T11:30:00.079Z,4.10
2017-10-13T11:32:27.610Z,3.70
2017-10-13T11:34:55.109Z,2.20
2017-10-13T11:37:22.636Z,7.87
2017-10-13T11:39:50.125Z,3.33
2017-10-13T11:42:17.640Z,2.77
2017-10-13T11:44:45.902Z,2.00
2017-10-13T11:47:13.422Z,3.37
2017-10-13T11:49:40.926Z,1.23
2017-10-13T11:52:08.469Z,1.77
2017-10-13T11:54:36.011Z,2.10
2017-10-13T11:57:03.576Z,1.40
2017-10-13T11:59:31.082Z,1.17
2017-10-13T12:01:58.606Z,1.10
2017-10-13T12:04:26.109Z,1.40
2017-10-13T12:06:54.420Z,3.50
2017-10-13T12:09:21.924Z,1.13
2017-10-13T12:11:49.417Z,1.20
2017-10-13T12:14:16.972Z,0.97
2017-10-13T12:16:44.480Z,0.93
2017-10-13T12:19:12.069Z,2.00
2017-10-13T12:21:39.589Z,1.27
2017-10-13T12:24:07.241Z,1.63
2017-10-13T12:26:34.753Z,2.40
2017-10-13T12:29:02.296Z,3.30
2017-10-13T12:31:29.788Z,1.70
2017-10-13T12:33:58.073Z,1.80
2017-10-13T12:36:25.607Z,4.20
2017-10-13T12:38:53.101Z,3.70
2017-10-13T12:41:20.819Z,3.53
2017-10-13T12:43:49.082Z,2.83
2017-10-13T12:46:16.644Z,1.10
2017-10-13T12:48:44.570Z,1.30
2017-10-13T12:51:12.169Z,2.07
2017-10-13T12:53:39.672Z,1.00
2017-10-13T12:56:07.215Z,1.17
2017-10-13T12:58:34.733Z,1.00
2017-10-13T13:01:02.237Z,1.43
2017-10-13T13:03:29.793Z,1.70
2017-10-13T13:05:57.538Z,1.03
2017-10-13T13:08:25.105Z,1.07
2017-10-13T13:10:52.696Z,1.73
2017-10-13T13:13:20.265Z,0.87
2017-10-13T13:15:47.757Z,1.70
2017-10-13T13:18:15.284Z,2.20
2017-10-13T13:20:42.788Z,1.57
2017-10-13T13:23:10.326Z,1.07
2017-10-13T13:25:38.304Z,1.50
2017-10-13T13:28:06.147Z,1.50
2017-10-13T13:30:33.665Z,0.90
2017-10-13T13:33:01.182Z,0.73
2017-10-13T13:35:29.498Z,1.53
2017-10-13T13:37:56.997Z,1.40
2017-10-13T13:40:24.588Z,1.60
2017-10-13T13:42:52.112Z,1.37
2017-10-13T13:45:20.053Z,5.90
2017-10-13T13:47:48.342Z,5.07
2017-10-13T13:50:15.888Z,1.80
2017-10-13T13:52:43.418Z,1.87
2017-10-13T13:55:10.914Z,1.20
2017-10-13T13:57:38.474Z,1.30
2017-10-13T14:00:06.060Z,1.83
2017-10-13T14:02:33.597Z,0.90
2017-10-13T14:05:01.111Z,2.10
2017-10-13T14:07:28.630Z,1.33
2017-10-13T14:09:56.133Z,1.33
2017-10-13T14:12:23.708Z,5.47
2017-10-13T14:14:51.202Z,1.10
2017-10-13T14:17:18.697Z,1.90
2017-10-13T14:19:46.226Z,1.77
2017-10-13T14:22:13.717Z,1.63
2017-10-13T14:24:41.249Z,1.97
2017-10-13T14:27:08.740Z,1.73
2017-10-13T14:29:36.284Z,1.60
2017-10-13T14:32:04.534Z,5.50
2017-10-13T14:34:32.073Z,4.20
2017-10-13T14:36:59.628Z,1.83
2017-10-13T14:39:27.272Z,3.90
2017-10-13T14:41:54.761Z,2.80
2017-10-13T14:44:23.043Z,3.07
2017-10-13T14:46:50.586Z,3.77
2017-10-13T14:49:18.089Z,3.00
2017-10-13T14:51:46.377Z,1.90
2017-10-13T14:54:14.633Z,3.30
2017-10-13T14:56:42.161Z,4.17
2017-10-13T14:59:09.661Z,1.97
2017-10-13T15:01:37.203Z,3.90
2017-10-13T15:04:04.778Z,1.80
2017-10-13T15:06:32.318Z,2.80
2017-10-13T15:08:59.814Z,4.27
2017-10-13T15:11:27.356Z,5.40
2017-10-13T15:13:54.853Z,3.60
2017-10-13T15:16:23.177Z,2.77
2017-10-13T15:18:50.686Z,2.83
2017-10-13T15:21:18.578Z,5.40
2017-10-13T15:23:46.105Z,2.28
2017-10-13T15:26:19.149Z,2.30
2017-10-13T15:28:52.351Z,3.00
2017-10-13T15:31:25.546Z,3.03
2017-10-13T15:33:58.807Z,1.80
2017-10-13T15:36:30.617Z,2.90
2017-10-13T15:39:03.764Z,2.13
2017-10-13T15:41:38.200Z,2.20
2017-10-13T15:44:12.152Z,5.87
2017-10-13T15:46:45.361Z,10.20
2017-10-13T15:49:18.418Z,6.33
2017-10-13T15:51:52.548Z,2.33
2017-10-13T15:54:20.853Z,1.70
2017-10-13T15:56:48.387Z,3.27
2017-10-13T15:59:15.922Z,3.00
2017-10-13T16:01:43.444Z,2.30
2017-10-13T16:04:11.092Z,4.10
2017-10-13T16:06:38.588Z,4.07
2017-10-13T16:09:06.138Z,3.30
2017-10-13T16:11:33.648Z,2.70
2017-10-13T16:14:01.191Z,10.43
2017-10-13T16:16:28.685Z,6.77
2017-10-13T16:18:56.241Z,4.43
2017-10-13T16:21:23.742Z,6.77
2017-10-13T16:23:52.029Z,5.33
2017-10-13T16:26:19.544Z,2.77
2017-10-13T16:28:47.045Z,4.37
2017-10-13T16:31:14.580Z,3.93
2017-10-13T16:33:42.103Z,3.40
2017-10-13T16:36:10.393Z,11.10
2017-10-13T16:38:38.644Z,2.90
2017-10-13T16:41:06.182Z,4.13
2017-10-13T16:43:33.688Z,4.50
2017-10-13T16:46:01.373Z,4.30
2017-10-13T16:48:28.873Z,5.40
2017-10-13T16:50:56.390Z,7.07
2017-10-13T16:53:23.929Z,6.40
2017-10-13T16:55:51.482Z,3.63
2017-10-13T16:58:19.812Z,3.50
2017-10-13T17:00:47.517Z,3.97
2017-10-13T17:03:15.085Z,7.60
2017-10-13T17:05:42.617Z,5.97
2017-10-13T17:08:10.147Z,6.20
2017-10-13T17:10:37.778Z,9.23
2017-10-13T17:13:06.157Z,8.23
2017-10-13T17:15:33.659Z,9.93
2017-10-13T17:18:01.219Z,5.33
2017-10-13T17:20:28.747Z,11.43
2017-10-13T17:22:56.997Z,6.83
2017-10-13T17:25:24.523Z,6.57
2017-10-13T17:27:52.025Z,11.67
2017-10-13T17:30:19.545Z,4.87
2017-10-13T17:32:47.796Z,5.83
2017-10-13T17:35:15.530Z,9.10
2017-10-13T17:37:43.032Z,6.53
2017-10-13T17:40:10.574Z,5.50
2017-10-13T17:42:38.065Z,8.17
2017-10-13T17:45:05.561Z,8.17
2017-10-13T17:47:33.096Z,5.77
2017-10-13T17:50:00.593Z,14.53
2017-10-13T17:52:28.117Z,9.80
2017-10-13T17:54:55.626Z,7.63
2017-10-13T17:57:23.270Z,4.90
2017-10-13T17:59:50.774Z,6.63
2017-10-13T18:02:18.382Z,6.80
2017-10-13T18:04:45.913Z,5.83
2017-10-13T18:07:13.401Z,5.77
2017-10-13T18:09:40.968Z,7.63
2017-10-13T18:12:08.473Z,12.47
2017-10-13T18:14:36.000Z,6.70
2017-10-13T18:17:03.499Z,6.93
2017-10-13T18:19:31.034Z,9.93
2017-10-13T18:21:58.570Z,9.60
2017-10-13T18:24:26.893Z,7.00
2017-10-13T18:26:54.433Z,7.47
2017-10-13T18:29:21.977Z,8.97
2017-10-13T18:31:49.517Z,8.23
2017-10-13T18:34:17.049Z,11.20
2017-10-13T18:36:45.509Z,7.30
2017-10-13T18:39:13.017Z,9.67
2017-10-13T18:41:41.308Z,9.20
2017-10-13T18:44:10.458Z,10.40
2017-10-13T18:46:38.021Z,6.20
2017-10-13T18:49:05.508Z,8.80
2017-10-13T18:51:33.049Z,6.57
2017-10-13T18:54:00.549Z,6.00
2017-10-13T18:56:28.053Z,8.67
2017-10-13T18:58:55.588Z,6.67
2017-10-13T19:01:23.085Z,4.43
2017-10-13T19:03:50.612Z,7.47
2017-10-13T19:06:18.119Z,8.57
2017-10-13T19:08:45.681Z,5.17
2017-10-13T19:11:13.194Z,11.20
2017-10-13T19:13:40.679Z,8.00
2017-10-13T19:16:08.241Z,12.80
2017-10-13T19:18:36.001Z,12.60
2017-10-13T19:21:03.582Z,13.63
2017-10-13T19:23:31.685Z,10.60
2017-10-13T19:26:00.007Z,9.40
2017-10-13T19:28:27.535Z,8.70
2017-10-13T19:30:55.126Z,10.20
2017-10-13T19:33:23.398Z,10.40
2017-10-13T19:35:51.087Z,7.40
2017-10-13T19:38:18.915Z,7.20
2017-10-13T19:40:46.455Z,7.00
2017-10-13T19:43:14.491Z,9.27
2017-10-13T19:45:42.018Z,12.23
2017-10-13T19:48:09.698Z,10.90
2017-10-13T19:50:38.567Z,8.90
2017-10-13T19:53:07.071Z,10.50
2017-10-13T19:55:34.601Z,12.00
2017-10-13T19:58:02.145Z,8.80
2017-10-13T20:00:29.645Z,9.57
2017-10-13T20:02:58.083Z,8.47
2017-10-13T20:05:26.109Z,9.10
2017-10-13T20:07:53.670Z,13.63
2017-10-13T20:10:21.218Z,10.60
2017-10-13T20:12:48.737Z,12.37
2017-10-13T20:15:16.272Z,8.50
2017-10-13T20:17:43.768Z,11.93
2017-10-13T20:20:11.330Z,9.90
2017-10-13T20:22:38.863Z,9.33
2017-10-13T20:25:06.409Z,6.90
2017-10-13T20:27:33.945Z,6.07
2017-10-13T20:30:01.448Z,6.80
2017-10-13T20:32:28.985Z,8.03
2017-10-13T20:34:56.489Z,12.03
2017-10-13T20:37:24.023Z,9.83
2017-10-13T20:39:51.610Z,8.47
2017-10-13T20:42:19.347Z,11.43
2017-10-13T20:44:47.650Z,7.30
2017-10-13T20:47:15.266Z,6.93
2017-10-13T20:49:42.813Z,4.93
2017-10-13T20:52:10.325Z,7.23
2017-10-13T20:54:37.883Z,9.50
2017-10-13T20:57:05.373Z,5.63
2017-10-13T20:59:32.888Z,6.43
2017-10-13T21:02:01.352Z,7.67
2017-10-13T21:04:28.880Z,5.57
2017-10-13T21:06:56.531Z,3.97
2017-10-13T21:09:24.370Z,4.30
2017-10-13T21:11:52.228Z,5.70
2017-10-13T21:14:19.716Z,9.43
2017-10-13T21:16:47.786Z,6.27
2017-10-13T21:19:15.561Z,10.30
2017-10-13T21:21:43.260Z,9.77
2017-10-13T21:24:10.753Z,7.17
2017-10-13T21:26:38.286Z,7.40
2017-10-13T21:29:05.774Z,4.77
2017-10-13T21:31:33.313Z,6.03
2017-10-13T21:34:00.817Z,5.80
2017-10-13T21:36:28.309Z,6.60
2017-10-13T21:38:56.597Z,7.83
2017-10-13T21:41:24.396Z,9.53
2017-10-13T21:43:51.924Z,7.13
2017-10-13T21:46:19.590Z,6.73
2017-10-13T21:48:47.133Z,3.87
2017-10-13T21:51:14.640Z,9.83
2017-10-13T21:53:42.165Z,4.00
2017-10-13T21:56:10.254Z,6.77
2017-10-13T21:58:37.790Z,5.40
2017-10-13T22:01:06.048Z,7.73
2017-10-13T22:03:33.578Z,6.03
2017-10-13T22:06:01.077Z,5.97
2017-10-13T22:08:28.694Z,8.13
2017-10-13T22:10:56.955Z,10.67
2017-10-13T22:13:24.458Z,6.60
2017-10-13T22:15:52.756Z,8.57
2017-10-13T22:18:20.260Z,10.97
2017-10-13T22:20:47.797Z,6.60
2017-10-13T22:23:15.292Z,4.80
2017-10-13T22:25:42.841Z,7.80
2017-10-13T22:28:10.331Z,8.70
2017-10-13T22:30:37.921Z,5.27
2017-10-13T22:33:05.415Z,4.50
2017-10-13T22:35:33.669Z,5.43
2017-10-13T22:38:01.164Z,8.13
2017-10-13T22:40:28.696Z,8.43
2017-10-13T22:42:56.212Z,10.17
2017-10-13T22:45:23.696Z,6.60
2017-10-13T22:47:51.218Z,7.47
2017-10-13T22:50:18.704Z,7.70
2017-10-13T22:52:46.217Z,5.97
2017-10-13T22:55:14.488Z,9.70
2017-10-13T22:57:42.050Z,6.70
2017-10-13T23:00:09.590Z,10.60
2017-10-13T23:02:37.129Z,6.87
2017-10-13T23:05:05.393Z,12.50
2017-10-13T23:07:32.905Z,6.40
2017-10-13T23:10:00.433Z,10.03
2017-10-13T23:12:27.928Z,8.83
2017-10-13T23:14:55.489Z,7.30
2017-10-13T23:17:22.986Z,14.97
2017-10-13T23:19:50.523Z,6.23
2017-10-13T23:22:18.110Z,7.90
2017-10-13T23:24:45.673Z,8.80
2017-10-13T23:27:13.176Z,6.07
2017-10-13T23:29:40.746Z,14.57
2017-10-13T23:32:08.260Z,10.27
2017-10-13T23:34:35.749Z,8.87
2017-10-13T23:37:03.280Z,9.10
2017-10-13T23:39:30.826Z,10.07
2017-10-13T23:41:59.117Z,16.23
2017-10-13T23:44:27.485Z,10.40
2017-10-13T23:46:55.028Z,9.50
2017-10-13T23:49:22.622Z,10.53
2017-10-13T23:51:50.198Z,8.30
2017-10-13T23:54:17.697Z,21.33
2017-10-13T23:56:45.996Z,11.03
2017-10-13T23:59:14.252Z,10.10
